TAF Text Data
IDs:
Format:
Raw Decoded Include METAR

Data at: 0639 UTC 07 Apr 2020

METAR for:LWSK (Skopje/Alexander the, --, MJ)
Text:LWSK 070600Z 21002KT CAVOK 05/M00 Q1031 NOSIG
Temperature: 5.0°C ( 41°F)
Dewpoint: 0.0°C ( 32°F) [RH = 70%]
Pressure (altimeter):30.44 inches Hg (1031.0 mb)
Winds:from the SSW (210 degrees) at 2 MPH (2 knots; 1.0 m/s)
Visibility:6 or more sm (10+ km)
Ceiling:ceiling and visibility are OK
Clouds:unknown

TAF for:LWSK (Skopje/Alexander the, --, MJ) issued at 0530 UTC 07 Apr 2020
Text:TAF LWSK 070530Z 0706/0806 VRB02KT CAVOK
Forecast period:0600 UTC 07 April 2020 to 0600 UTC 08 April 2020
Forecast type:FROM: standard forecast or significant change
Winds:variable direction winds at 2 MPH (2 knots; 1.0 m/s)
Visibility:6 or more sm (10+ km)
Clouds:missing
Weather:NSW (no significant weather)
Text:TEMPO 0710/0718 36012KT
Forecast period:1000 to 1800 UTC 07 April 2020
Forecast type:TEMPORARY: The following changes expected for less than half the time period
Winds:from the N (360 degrees) at 14 MPH (12 knots; 6.2 m/s)
Clouds:missing